sensor_id;sensor_type;location;lat;lon;timestamp;P1;durP1;ratioP1;P2;durP2;ratioP2
3159;SDS011;1591;51.486;7.146;2022-09-13T00:01:08;2.63;;;2.53;;
3159;SDS011;1591;51.486;7.146;2022-09-13T00:03:35;6.20;;;2.67;;
3159;SDS011;1591;51.486;7.146;2022-09-13T00:06:07;2.73;;;2.53;;
3159;SDS011;1591;51.486;7.146;2022-09-13T00:08:37;3.10;;;2.90;;
3159;SDS011;1591;51.486;7.146;2022-09-13T00:11:05;4.90;;;3.10;;
3159;SDS011;1591;51.486;7.146;2022-09-13T00:13:33;3.77;;;2.40;;
3159;SDS011;1591;51.486;7.146;2022-09-13T00:16:00;3.00;;;2.70;;
3159;SDS011;1591;51.486;7.146;2022-09-13T00:18:30;5.03;;;2.40;;
3159;SDS011;1591;51.486;7.146;2022-09-13T00:21:05;3.17;;;2.90;;
3159;SDS011;1591;51.486;7.146;2022-09-13T00:23:34;3.40;;;2.70;;
3159;SDS011;1591;51.486;7.146;2022-09-13T00:26:03;5.80;;;2.70;;
3159;SDS011;1591;51.486;7.146;2022-09-13T00:28:32;5.50;;;3.40;;
3159;SDS011;1591;51.486;7.146;2022-09-13T00:30:59;4.80;;;2.80;;
3159;SDS011;1591;51.486;7.146;2022-09-13T00:33:27;3.53;;;2.50;;
3159;SDS011;1591;51.486;7.146;2022-09-13T00:35:55;2.73;;;2.53;;
3159;SDS011;1591;51.486;7.146;2022-09-13T00:38:22;2.53;;;2.40;;
3159;SDS011;1591;51.486;7.146;2022-09-13T00:40:49;2.77;;;2.53;;
3159;SDS011;1591;51.486;7.146;2022-09-13T00:43:17;3.53;;;2.97;;
3159;SDS011;1591;51.486;7.146;2022-09-13T00:46:05;3.03;;;2.73;;
3159;SDS011;1591;51.486;7.146;2022-09-13T00:48:33;3.80;;;2.50;;
3159;SDS011;1591;51.486;7.146;2022-09-13T00:51:03;3.83;;;2.50;;
3159;SDS011;1591;51.486;7.146;2022-09-13T00:53:34;4.13;;;2.80;;
3159;SDS011;1591;51.486;7.146;2022-09-13T00:56:05;8.43;;;2.50;;
3159;SDS011;1591;51.486;7.146;2022-09-13T00:58:38;2.70;;;2.50;;
3159;SDS011;1591;51.486;7.146;2022-09-13T01:01:11;2.57;;;2.37;;
3159;SDS011;1591;51.486;7.146;2022-09-13T01:03:40;2.83;;;2.60;;
3159;SDS011;1591;51.486;7.146;2022-09-13T01:06:11;2.60;;;2.40;;
3159;SDS011;1591;51.486;7.146;2022-09-13T01:08:44;3.10;;;2.63;;
3159;SDS011;1591;51.486;7.146;2022-09-13T01:11:15;3.47;;;2.50;;
3159;SDS011;1591;51.486;7.146;2022-09-13T01:13:52;3.47;;;2.33;;
3159;SDS011;1591;51.486;7.146;2022-09-13T01:16:20;5.13;;;2.80;;
3159;SDS011;1591;51.486;7.146;2022-09-13T01:18:47;2.40;;;2.20;;
3159;SDS011;1591;51.486;7.146;2022-09-13T01:24:37;7.87;;;2.73;;
3159;SDS011;1591;51.486;7.146;2022-09-13T01:27:38;2.70;;;2.47;;
3159;SDS011;1591;51.486;7.146;2022-09-13T01:30:34;4.93;;;2.50;;
3159;SDS011;1591;51.486;7.146;2022-09-13T01:33:19;3.43;;;2.20;;
3159;SDS011;1591;51.486;7.146;2022-09-13T01:36:09;3.07;;;2.73;;
3159;SDS011;1591;51.486;7.146;2022-09-13T01:38:58;4.10;;;2.60;;
3159;SDS011;1591;51.486;7.146;2022-09-13T01:41:34;3.60;;;2.77;;
3159;SDS011;1591;51.486;7.146;2022-09-13T01:44:30;2.67;;;2.47;;
3159;SDS011;1591;51.486;7.146;2022-09-13T01:47:22;3.23;;;2.40;;
3159;SDS011;1591;51.486;7.146;2022-09-13T01:49:55;3.80;;;2.67;;
3159;SDS011;1591;51.486;7.146;2022-09-13T01:52:38;3.97;;;2.70;;
3159;SDS011;1591;51.486;7.146;2022-09-13T01:55:17;8.30;;;2.93;;
3159;SDS011;1591;51.486;7.146;2022-09-13T01:57:57;4.10;;;2.57;;
3159;SDS011;1591;51.486;7.146;2022-09-13T02:00:35;12.70;;;2.60;;
3159;SDS011;1591;51.486;7.146;2022-09-13T02:03:08;5.53;;;2.43;;
3159;SDS011;1591;51.486;7.146;2022-09-13T02:05:44;3.63;;;2.67;;
3159;SDS011;1591;51.486;7.146;2022-09-13T02:08:17;3.23;;;2.40;;
3159;SDS011;1591;51.486;7.146;2022-09-13T02:10:50;2.73;;;2.53;;
3159;SDS011;1591;51.486;7.146;2022-09-13T02:13:25;2.70;;;2.20;;
3159;SDS011;1591;51.486;7.146;2022-09-13T02:15:58;3.00;;;2.30;;
3159;SDS011;1591;51.486;7.146;2022-09-13T02:18:33;2.73;;;2.53;;
3159;SDS011;1591;51.486;7.146;2022-09-13T02:21:05;3.80;;;2.50;;
3159;SDS011;1591;51.486;7.146;2022-09-13T02:23:37;4.60;;;2.30;;
3159;SDS011;1591;51.486;7.146;2022-09-13T02:26:11;2.50;;;2.30;;
3159;SDS011;1591;51.486;7.146;2022-09-13T02:28:41;4.57;;;2.50;;
3159;SDS011;1591;51.486;7.146;2022-09-13T02:31:12;3.23;;;2.50;;
3159;SDS011;1591;51.486;7.146;2022-09-13T02:33:47;6.03;;;2.63;;
3159;SDS011;1591;51.486;7.146;2022-09-13T02:36:20;6.00;;;2.60;;
3159;SDS011;1591;51.486;7.146;2022-09-13T02:38:51;5.73;;;2.73;;
3159;SDS011;1591;51.486;7.146;2022-09-13T02:41:23;5.73;;;2.67;;
3159;SDS011;1591;51.486;7.146;2022-09-13T02:44:00;3.33;;;3.03;;
3159;SDS011;1591;51.486;7.146;2022-09-13T02:46:37;5.93;;;2.47;;
3159;SDS011;1591;51.486;7.146;2022-09-13T02:49:25;4.23;;;2.60;;
3159;SDS011;1591;51.486;7.146;2022-09-13T02:52:01;2.80;;;2.60;;
3159;SDS011;1591;51.486;7.146;2022-09-13T02:54:36;4.50;;;2.60;;
3159;SDS011;1591;51.486;7.146;2022-09-13T02:57:08;6.03;;;2.63;;
3159;SDS011;1591;51.486;7.146;2022-09-13T02:59:44;5.73;;;2.37;;
3159;SDS011;1591;51.486;7.146;2022-09-13T03:02:12;2.73;;;2.53;;
3159;SDS011;1591;51.486;7.146;2022-09-13T03:04:44;3.30;;;2.60;;
3159;SDS011;1591;51.486;7.146;2022-09-13T03:07:14;5.87;;;3.43;;
3159;SDS011;1591;51.486;7.146;2022-09-13T03:09:42;6.10;;;2.43;;
3159;SDS011;1591;51.486;7.146;2022-09-13T03:12:18;4.57;;;3.00;;
3159;SDS011;1591;51.486;7.146;2022-09-13T03:15:10;7.10;;;2.57;;
3159;SDS011;1591;51.486;7.146;2022-09-13T03:17:52;7.90;;;2.70;;
3159;SDS011;1591;51.486;7.146;2022-09-13T03:20:37;3.07;;;2.40;;
3159;SDS011;1591;51.486;7.146;2022-09-13T03:23:30;6.67;;;2.90;;
3159;SDS011;1591;51.486;7.146;2022-09-13T03:26:20;6.43;;;2.53;;
3159;SDS011;1591;51.486;7.146;2022-09-13T03:29:01;8.53;;;3.07;;
3159;SDS011;1591;51.486;7.146;2022-09-13T03:31:44;7.80;;;2.60;;
3159;SDS011;1591;51.486;7.146;2022-09-13T03:34:22;5.57;;;3.00;;
3159;SDS011;1591;51.486;7.146;2022-09-13T03:37:09;2.90;;;2.70;;
3159;SDS011;1591;51.486;7.146;2022-09-13T03:39:46;2.93;;;2.60;;
3159;SDS011;1591;51.486;7.146;2022-09-13T03:42:20;5.70;;;2.33;;
3159;SDS011;1591;51.486;7.146;2022-09-13T03:44:54;3.53;;;2.60;;
3159;SDS011;1591;51.486;7.146;2022-09-13T03:47:23;3.63;;;2.73;;
3159;SDS011;1591;51.486;7.146;2022-09-13T03:49:54;6.27;;;2.83;;
3159;SDS011;1591;51.486;7.146;2022-09-13T03:52:23;6.10;;;3.10;;
3159;SDS011;1591;51.486;7.146;2022-09-13T03:54:52;2.93;;;2.73;;
3159;SDS011;1591;51.486;7.146;2022-09-13T03:57:19;2.87;;;2.67;;
3159;SDS011;1591;51.486;7.146;2022-09-13T03:59:47;5.83;;;3.03;;
3159;SDS011;1591;51.486;7.146;2022-09-13T04:02:17;5.53;;;3.43;;
3159;SDS011;1591;51.486;7.146;2022-09-13T04:04:46;7.40;;;2.87;;
3159;SDS011;1591;51.486;7.146;2022-09-13T04:07:16;2.80;;;2.60;;
3159;SDS011;1591;51.486;7.146;2022-09-13T04:09:46;3.43;;;3.13;;
3159;SDS011;1591;51.486;7.146;2022-09-13T04:12:14;6.90;;;3.23;;
3159;SDS011;1591;51.486;7.146;2022-09-13T04:14:42;3.33;;;3.00;;
3159;SDS011;1591;51.486;7.146;2022-09-13T04:17:10;3.67;;;2.97;;
3159;SDS011;1591;51.486;7.146;2022-09-13T04:19:37;3.70;;;2.80;;
3159;SDS011;1591;51.486;7.146;2022-09-13T04:22:04;3.63;;;2.93;;
3159;SDS011;1591;51.486;7.146;2022-09-13T04:24:31;4.83;;;3.17;;
3159;SDS011;1591;51.486;7.146;2022-09-13T04:27:00;4.37;;;2.80;;
3159;SDS011;1591;51.486;7.146;2022-09-13T04:29:27;5.10;;;3.00;;
3159;SDS011;1591;51.486;7.146;2022-09-13T04:31:55;6.17;;;3.00;;
3159;SDS011;1591;51.486;7.146;2022-09-13T04:34:22;5.53;;;3.00;;
3159;SDS011;1591;51.486;7.146;2022-09-13T04:36:50;4.43;;;2.80;;
3159;SDS011;1591;51.486;7.146;2022-09-13T04:39:18;7.50;;;3.00;;
3159;SDS011;1591;51.486;7.146;2022-09-13T04:41:45;4.37;;;3.40;;
3159;SDS011;1591;51.486;7.146;2022-09-13T04:44:15;3.23;;;2.93;;
3159;SDS011;1591;51.486;7.146;2022-09-13T04:46:45;17.97;;;3.50;;
3159;SDS011;1591;51.486;7.146;2022-09-13T04:49:13;3.10;;;2.80;;
3159;SDS011;1591;51.486;7.146;2022-09-13T04:51:41;5.17;;;3.20;;
3159;SDS011;1591;51.486;7.146;2022-09-13T04:54:09;8.00;;;3.00;;
3159;SDS011;1591;51.486;7.146;2022-09-13T04:56:36;3.53;;;2.93;;
3159;SDS011;1591;51.486;7.146;2022-09-13T04:59:03;7.53;;;2.93;;
3159;SDS011;1591;51.486;7.146;2022-09-13T05:01:32;4.27;;;2.80;;
3159;SDS011;1591;51.486;7.146;2022-09-13T05:03:59;7.10;;;3.00;;
3159;SDS011;1591;51.486;7.146;2022-09-13T05:06:26;3.60;;;3.30;;
3159;SDS011;1591;51.486;7.146;2022-09-13T05:08:54;5.77;;;3.27;;
3159;SDS011;1591;51.486;7.146;2022-09-13T05:11:22;7.07;;;3.83;;
3159;SDS011;1591;51.486;7.146;2022-09-13T05:13:50;9.57;;;2.90;;
3159;SDS011;1591;51.486;7.146;2022-09-13T05:16:19;5.03;;;3.20;;
3159;SDS011;1591;51.486;7.146;2022-09-13T05:18:48;6.10;;;3.07;;
3159;SDS011;1591;51.486;7.146;2022-09-13T05:21:15;6.73;;;3.80;;
3159;SDS011;1591;51.486;7.146;2022-09-13T05:23:43;4.50;;;3.17;;
3159;SDS011;1591;51.486;7.146;2022-09-13T05:26:13;9.13;;;3.37;;
3159;SDS011;1591;51.486;7.146;2022-09-13T05:28:40;6.67;;;3.20;;
3159;SDS011;1591;51.486;7.146;2022-09-13T05:31:09;4.60;;;3.50;;
3159;SDS011;1591;51.486;7.146;2022-09-13T05:33:41;9.10;;;3.53;;
3159;SDS011;1591;51.486;7.146;2022-09-13T05:36:10;25.73;;;4.13;;
3159;SDS011;1591;51.486;7.146;2022-09-13T05:38:37;8.13;;;3.37;;
3159;SDS011;1591;51.486;7.146;2022-09-13T05:41:04;4.30;;;3.20;;
3159;SDS011;1591;51.486;7.146;2022-09-13T05:43:33;9.00;;;3.67;;
3159;SDS011;1591;51.486;7.146;2022-09-13T05:46:02;7.90;;;3.33;;
3159;SDS011;1591;51.486;7.146;2022-09-13T05:48:32;7.93;;;3.30;;
3159;SDS011;1591;51.486;7.146;2022-09-13T05:51:03;6.27;;;3.63;;
3159;SDS011;1591;51.486;7.146;2022-09-13T05:53:33;6.30;;;3.13;;
3159;SDS011;1591;51.486;7.146;2022-09-13T05:56:02;4.20;;;3.43;;
3159;SDS011;1591;51.486;7.146;2022-09-13T05:58:29;6.10;;;3.43;;
3159;SDS011;1591;51.486;7.146;2022-09-13T06:00:56;7.17;;;3.70;;
3159;SDS011;1591;51.486;7.146;2022-09-13T06:03:23;5.40;;;3.40;;
3159;SDS011;1591;51.486;7.146;2022-09-13T06:05:53;6.87;;;3.43;;
3159;SDS011;1591;51.486;7.146;2022-09-13T06:08:21;5.10;;;3.13;;
3159;SDS011;1591;51.486;7.146;2022-09-13T06:10:56;10.77;;;3.70;;
3159;SDS011;1591;51.486;7.146;2022-09-13T06:13:25;8.33;;;3.47;;
3159;SDS011;1591;51.486;7.146;2022-09-13T06:15:54;3.80;;;3.40;;
3159;SDS011;1591;51.486;7.146;2022-09-13T06:18:22;8.50;;;3.50;;
3159;SDS011;1591;51.486;7.146;2022-09-13T06:20:50;8.47;;;2.90;;
3159;SDS011;1591;51.486;7.146;2022-09-13T06:23:22;3.30;;;3.00;;
3159;SDS011;1591;51.486;7.146;2022-09-13T06:25:49;4.07;;;3.50;;
3159;SDS011;1591;51.486;7.146;2022-09-13T06:28:25;7.07;;;3.50;;
3159;SDS011;1591;51.486;7.146;2022-09-13T06:30:57;4.47;;;3.30;;
3159;SDS011;1591;51.486;7.146;2022-09-13T06:33:26;3.87;;;3.20;;
3159;SDS011;1591;51.486;7.146;2022-09-13T06:35:53;3.53;;;3.23;;
3159;SDS011;1591;51.486;7.146;2022-09-13T06:38:20;7.93;;;2.97;;
3159;SDS011;1591;51.486;7.146;2022-09-13T06:40:47;3.57;;;3.27;;
3159;SDS011;1591;51.486;7.146;2022-09-13T06:43:26;4.43;;;3.90;;
3159;SDS011;1591;51.486;7.146;2022-09-13T06:45:57;6.63;;;3.13;;
3159;SDS011;1591;51.486;7.146;2022-09-13T06:48:26;4.00;;;3.13;;
3159;SDS011;1591;51.486;7.146;2022-09-13T06:50:56;7.03;;;3.50;;
3159;SDS011;1591;51.486;7.146;2022-09-13T06:53:24;4.37;;;3.17;;
3159;SDS011;1591;51.486;7.146;2022-09-13T06:56:02;3.83;;;3.03;;
3159;SDS011;1591;51.486;7.146;2022-09-13T06:58:33;5.93;;;3.33;;
3159;SDS011;1591;51.486;7.146;2022-09-13T07:01:08;4.27;;;3.30;;
3159;SDS011;1591;51.486;7.146;2022-09-13T07:03:38;13.67;;;3.10;;
3159;SDS011;1591;51.486;7.146;2022-09-13T07:06:08;3.17;;;2.80;;
3159;SDS011;1591;51.486;7.146;2022-09-13T07:08:38;6.40;;;3.70;;
3159;SDS011;1591;51.486;7.146;2022-09-13T07:11:05;4.77;;;3.33;;
3159;SDS011;1591;51.486;7.146;2022-09-13T07:13:34;4.07;;;3.40;;
3159;SDS011;1591;51.486;7.146;2022-09-13T07:16:02;5.47;;;3.00;;
3159;SDS011;1591;51.486;7.146;2022-09-13T07:18:31;3.33;;;2.87;;
3159;SDS011;1591;51.486;7.146;2022-09-13T07:20:59;5.23;;;3.10;;
3159;SDS011;1591;51.486;7.146;2022-09-13T07:23:29;3.90;;;3.00;;
3159;SDS011;1591;51.486;7.146;2022-09-13T07:25:57;5.53;;;2.90;;
3159;SDS011;1591;51.486;7.146;2022-09-13T07:28:28;6.40;;;3.20;;
3159;SDS011;1591;51.486;7.146;2022-09-13T07:31:04;4.40;;;2.83;;
3159;SDS011;1591;51.486;7.146;2022-09-13T07:33:34;5.40;;;2.70;;
3159;SDS011;1591;51.486;7.146;2022-09-13T07:36:01;4.33;;;2.90;;
3159;SDS011;1591;51.486;7.146;2022-09-13T07:38:31;6.87;;;3.20;;
3159;SDS011;1591;51.486;7.146;2022-09-13T07:40:59;4.10;;;2.70;;
3159;SDS011;1591;51.486;7.146;2022-09-13T07:43:30;7.40;;;2.90;;
3159;SDS011;1591;51.486;7.146;2022-09-13T07:45:58;4.40;;;2.97;;
3159;SDS011;1591;51.486;7.146;2022-09-13T07:48:29;5.20;;;3.40;;
3159;SDS011;1591;51.486;7.146;2022-09-13T07:51:00;5.23;;;2.97;;
3159;SDS011;1591;51.486;7.146;2022-09-13T07:53:29;11.53;;;3.40;;
3159;SDS011;1591;51.486;7.146;2022-09-13T07:55:59;4.57;;;3.00;;
3159;SDS011;1591;51.486;7.146;2022-09-13T07:58:28;3.43;;;3.00;;
3159;SDS011;1591;51.486;7.146;2022-09-13T08:00:57;3.70;;;2.80;;
3159;SDS011;1591;51.486;7.146;2022-09-13T08:03:31;5.20;;;2.93;;
3159;SDS011;1591;51.486;7.146;2022-09-13T08:05:59;7.97;;;2.80;;
3159;SDS011;1591;51.486;7.146;2022-09-13T08:08:26;9.60;;;2.83;;
3159;SDS011;1591;51.486;7.146;2022-09-13T08:10:53;9.30;;;2.73;;
3159;SDS011;1591;51.486;7.146;2022-09-13T08:13:21;4.13;;;3.73;;
3159;SDS011;1591;51.486;7.146;2022-09-13T08:15:49;3.63;;;2.93;;
3159;SDS011;1591;51.486;7.146;2022-09-13T08:18:16;4.60;;;3.63;;
3159;SDS011;1591;51.486;7.146;2022-09-13T08:20:45;4.80;;;3.80;;
3159;SDS011;1591;51.486;7.146;2022-09-13T08:23:12;8.30;;;4.17;;
3159;SDS011;1591;51.486;7.146;2022-09-13T08:25:39;10.47;;;4.33;;
3159;SDS011;1591;51.486;7.146;2022-09-13T08:28:07;7.43;;;4.30;;
3159;SDS011;1591;51.486;7.146;2022-09-13T08:30:42;7.90;;;4.17;;
3159;SDS011;1591;51.486;7.146;2022-09-13T08:33:10;8.87;;;5.00;;
3159;SDS011;1591;51.486;7.146;2022-09-13T08:35:37;4.53;;;3.83;;
3159;SDS011;1591;51.486;7.146;2022-09-13T08:38:06;4.80;;;3.47;;
3159;SDS011;1591;51.486;7.146;2022-09-13T08:40:37;6.17;;;4.40;;
3159;SDS011;1591;51.486;7.146;2022-09-13T08:43:10;7.40;;;4.70;;
3159;SDS011;1591;51.486;7.146;2022-09-13T08:45:50;7.80;;;4.43;;
3159;SDS011;1591;51.486;7.146;2022-09-13T08:48:25;10.37;;;4.23;;
3159;SDS011;1591;51.486;7.146;2022-09-13T08:51:01;8.57;;;4.40;;
3159;SDS011;1591;51.486;7.146;2022-09-13T08:53:34;9.37;;;5.17;;
3159;SDS011;1591;51.486;7.146;2022-09-13T08:56:11;12.83;;;5.60;;
3159;SDS011;1591;51.486;7.146;2022-09-13T08:58:55;5.83;;;4.67;;
3159;SDS011;1591;51.486;7.146;2022-09-13T09:01:53;13.77;;;5.57;;
3159;SDS011;1591;51.486;7.146;2022-09-13T09:04:37;11.50;;;5.80;;
3159;SDS011;1591;51.486;7.146;2022-09-13T09:07:12;8.03;;;4.20;;
3159;SDS011;1591;51.486;7.146;2022-09-13T09:09:46;8.43;;;4.67;;
3159;SDS011;1591;51.486;7.146;2022-09-13T09:12:22;5.33;;;4.60;;
3159;SDS011;1591;51.486;7.146;2022-09-13T09:15:00;6.97;;;4.37;;
3159;SDS011;1591;51.486;7.146;2022-09-13T09:17:40;7.00;;;4.30;;
3159;SDS011;1591;51.486;7.146;2022-09-13T09:20:22;11.10;;;4.70;;
3159;SDS011;1591;51.486;7.146;2022-09-13T09:22:57;7.03;;;4.60;;
3159;SDS011;1591;51.486;7.146;2022-09-13T09:25:32;7.03;;;4.90;;
3159;SDS011;1591;51.486;7.146;2022-09-13T09:28:00;13.13;;;4.50;;
3159;SDS011;1591;51.486;7.146;2022-09-13T09:30:36;8.30;;;4.07;;
3159;SDS011;1591;51.486;7.146;2022-09-13T09:36:16;14.23;;;5.77;;
3159;SDS011;1591;51.486;7.146;2022-09-13T09:38:53;10.83;;;4.73;;
3159;SDS011;1591;51.486;7.146;2022-09-13T09:41:25;5.53;;;4.77;;
3159;SDS011;1591;51.486;7.146;2022-09-13T09:43:58;12.93;;;5.00;;
3159;SDS011;1591;51.486;7.146;2022-09-13T09:46:36;8.23;;;4.53;;
3159;SDS011;1591;51.486;7.146;2022-09-13T09:49:12;6.90;;;4.10;;
3159;SDS011;1591;51.486;7.146;2022-09-13T09:52:01;8.50;;;4.17;;
3159;SDS011;1591;51.486;7.146;2022-09-13T09:54:31;5.57;;;3.43;;
3159;SDS011;1591;51.486;7.146;2022-09-13T09:57:03;7.90;;;4.20;;
3159;SDS011;1591;51.486;7.146;2022-09-13T09:59:32;8.10;;;3.60;;
3159;SDS011;1591;51.486;7.146;2022-09-13T10:02:01;7.17;;;3.70;;
3159;SDS011;1591;51.486;7.146;2022-09-13T10:04:41;7.40;;;4.03;;
3159;SDS011;1591;51.486;7.146;2022-09-13T10:07:10;5.20;;;4.57;;
3159;SDS011;1591;51.486;7.146;2022-09-13T10:09:54;4.73;;;3.83;;
3159;SDS011;1591;51.486;7.146;2022-09-13T10:12:27;6.27;;;4.50;;
3159;SDS011;1591;51.486;7.146;2022-09-13T10:15:03;11.63;;;4.90;;
3159;SDS011;1591;51.486;7.146;2022-09-13T10:17:39;12.33;;;4.37;;
3159;SDS011;1591;51.486;7.146;2022-09-13T10:20:18;7.37;;;4.40;;
3159;SDS011;1591;51.486;7.146;2022-09-13T10:25:42;11.93;;;4.83;;
3159;SDS011;1591;51.486;7.146;2022-09-13T10:28:21;6.70;;;4.73;;
3159;SDS011;1591;51.486;7.146;2022-09-13T10:30:51;11.50;;;4.40;;
3159;SDS011;1591;51.486;7.146;2022-09-13T10:33:25;11.07;;;3.77;;
3159;SDS011;1591;51.486;7.146;2022-09-13T10:35:56;11.17;;;4.07;;
3159;SDS011;1591;51.486;7.146;2022-09-13T10:38:28;5.93;;;3.87;;
3159;SDS011;1591;51.486;7.146;2022-09-13T10:40:58;5.73;;;3.90;;
3159;SDS011;1591;51.486;7.146;2022-09-13T10:43:31;10.53;;;4.60;;
3159;SDS011;1591;51.486;7.146;2022-09-13T10:45:59;6.87;;;4.13;;
3159;SDS011;1591;51.486;7.146;2022-09-13T10:48:30;14.47;;;4.80;;
3159;SDS011;1591;51.486;7.146;2022-09-13T10:51:17;10.13;;;5.07;;
3159;SDS011;1591;51.486;7.146;2022-09-13T10:54:08;7.80;;;5.30;;
3159;SDS011;1591;51.486;7.146;2022-09-13T10:56:45;17.43;;;4.93;;
3159;SDS011;1591;51.486;7.146;2022-09-13T10:59:20;8.27;;;5.10;;
3159;SDS011;1591;51.486;7.146;2022-09-13T11:01:59;10.23;;;6.03;;
3159;SDS011;1591;51.486;7.146;2022-09-13T11:04:55;9.73;;;4.80;;
3159;SDS011;1591;51.486;7.146;2022-09-13T11:07:40;10.60;;;5.53;;
3159;SDS011;1591;51.486;7.146;2022-09-13T11:10:58;9.30;;;5.00;;
3159;SDS011;1591;51.486;7.146;2022-09-13T11:13:40;11.73;;;5.17;;
3159;SDS011;1591;51.486;7.146;2022-09-13T11:16:29;8.07;;;5.60;;
3159;SDS011;1591;51.486;7.146;2022-09-13T11:19:08;14.03;;;4.97;;
3159;SDS011;1591;51.486;7.146;2022-09-13T11:21:56;10.90;;;5.33;;
3159;SDS011;1591;51.486;7.146;2022-09-13T11:24:42;9.80;;;4.47;;
3159;SDS011;1591;51.486;7.146;2022-09-13T11:27:30;10.40;;;5.00;;
3159;SDS011;1591;51.486;7.146;2022-09-13T11:30:10;12.57;;;5.17;;
3159;SDS011;1591;51.486;7.146;2022-09-13T11:32:47;6.77;;;4.90;;
3159;SDS011;1591;51.486;7.146;2022-09-13T11:35:53;7.50;;;4.67;;
3159;SDS011;1591;51.486;7.146;2022-09-13T11:38:52;12.20;;;5.30;;
3159;SDS011;1591;51.486;7.146;2022-09-13T11:41:33;10.13;;;5.33;;
3159;SDS011;1591;51.486;7.146;2022-09-13T11:44:16;9.00;;;4.53;;
3159;SDS011;1591;51.486;7.146;2022-09-13T11:47:05;15.23;;;6.10;;
3159;SDS011;1591;51.486;7.146;2022-09-13T11:49:51;7.03;;;4.30;;
3159;SDS011;1591;51.486;7.146;2022-09-13T11:52:37;10.17;;;4.90;;
3159;SDS011;1591;51.486;7.146;2022-09-13T11:55:16;10.00;;;4.60;;
3159;SDS011;1591;51.486;7.146;2022-09-13T11:57:49;5.93;;;3.90;;
3159;SDS011;1591;51.486;7.146;2022-09-13T12:00:21;9.43;;;4.90;;
3159;SDS011;1591;51.486;7.146;2022-09-13T12:02:53;6.57;;;3.63;;
3159;SDS011;1591;51.486;7.146;2022-09-13T12:05:33;4.53;;;3.77;;
3159;SDS011;1591;51.486;7.146;2022-09-13T12:08:12;20.47;;;3.77;;
3159;SDS011;1591;51.486;7.146;2022-09-13T12:10:47;14.83;;;4.00;;
3159;SDS011;1591;51.486;7.146;2022-09-13T12:13:20;8.10;;;4.33;;
3159;SDS011;1591;51.486;7.146;2022-09-13T12:15:51;5.30;;;3.23;;
3159;SDS011;1591;51.486;7.146;2022-09-13T12:18:23;5.80;;;3.53;;
3159;SDS011;1591;51.486;7.146;2022-09-13T12:20:56;6.87;;;3.50;;
3159;SDS011;1591;51.486;7.146;2022-09-13T12:23:31;7.10;;;3.67;;
3159;SDS011;1591;51.486;7.146;2022-09-13T12:26:04;14.57;;;3.90;;
3159;SDS011;1591;51.486;7.146;2022-09-13T12:28:36;5.83;;;3.90;;
3159;SDS011;1591;51.486;7.146;2022-09-13T12:31:09;7.03;;;3.10;;
3159;SDS011;1591;51.486;7.146;2022-09-13T12:33:43;10.60;;;3.70;;
3159;SDS011;1591;51.486;7.146;2022-09-13T12:36:23;6.70;;;3.77;;
3159;SDS011;1591;51.486;7.146;2022-09-13T12:39:20;5.30;;;3.80;;
3159;SDS011;1591;51.486;7.146;2022-09-13T12:45:10;6.80;;;3.97;;
3159;SDS011;1591;51.486;7.146;2022-09-13T12:48:04;5.83;;;4.03;;
3159;SDS011;1591;51.486;7.146;2022-09-13T12:50:57;11.40;;;4.77;;
3159;SDS011;1591;51.486;7.146;2022-09-13T12:53:45;6.90;;;5.03;;
3159;SDS011;1591;51.486;7.146;2022-09-13T12:56:44;8.83;;;4.87;;
3159;SDS011;1591;51.486;7.146;2022-09-13T12:59:27;8.80;;;5.90;;
3159;SDS011;1591;51.486;7.146;2022-09-13T13:04:55;6.57;;;5.20;;
3159;SDS011;1591;51.486;7.146;2022-09-13T13:07:25;8.30;;;5.70;;
3159;SDS011;1591;51.486;7.146;2022-09-13T13:09:55;9.20;;;6.50;;
3159;SDS011;1591;51.486;7.146;2022-09-13T13:12:27;8.63;;;5.77;;
3159;SDS011;1591;51.486;7.146;2022-09-13T13:14:58;7.83;;;6.20;;
3159;SDS011;1591;51.486;7.146;2022-09-13T13:17:45;15.97;;;6.77;;
3159;SDS011;1591;51.486;7.146;2022-09-13T13:23:18;10.00;;;7.10;;
3159;SDS011;1591;51.486;7.146;2022-09-13T13:26:04;8.80;;;6.67;;
3159;SDS011;1591;51.486;7.146;2022-09-13T13:28:47;7.67;;;6.30;;
3159;SDS011;1591;51.486;7.146;2022-09-13T13:31:41;10.00;;;5.60;;
3159;SDS011;1591;51.486;7.146;2022-09-13T13:34:33;6.67;;;5.10;;
3159;SDS011;1591;51.486;7.146;2022-09-13T13:45:56;8.33;;;5.30;;
3159;SDS011;1591;51.486;7.146;2022-09-13T13:48:40;8.23;;;5.60;;
3159;SDS011;1591;51.486;7.146;2022-09-13T13:51:11;6.33;;;5.73;;
3159;SDS011;1591;51.486;7.146;2022-09-13T13:53:44;8.53;;;5.67;;
3159;SDS011;1591;51.486;7.146;2022-09-13T13:56:18;9.67;;;5.57;;
3159;SDS011;1591;51.486;7.146;2022-09-13T13:59:12;6.70;;;6.00;;
3159;SDS011;1591;51.486;7.146;2022-09-13T14:01:47;10.43;;;6.13;;
3159;SDS011;1591;51.486;7.146;2022-09-13T14:07:41;7.87;;;5.80;;
3159;SDS011;1591;51.486;7.146;2022-09-13T14:10:47;7.20;;;5.93;;
3159;SDS011;1591;51.486;7.146;2022-09-13T14:13:32;8.10;;;5.37;;
3159;SDS011;1591;51.486;7.146;2022-09-13T14:16:24;17.23;;;6.43;;
3159;SDS011;1591;51.486;7.146;2022-09-13T14:19:17;6.97;;;6.17;;
3159;SDS011;1591;51.486;7.146;2022-09-13T14:22:04;8.90;;;5.60;;
3159;SDS011;1591;51.486;7.146;2022-09-13T14:24:40;6.53;;;5.80;;
3159;SDS011;1591;51.486;7.146;2022-09-13T14:27:14;9.13;;;6.00;;
3159;SDS011;1591;51.486;7.146;2022-09-13T14:29:45;9.50;;;6.60;;
3159;SDS011;1591;51.486;7.146;2022-09-13T14:32:17;8.37;;;6.10;;
3159;SDS011;1591;51.486;7.146;2022-09-13T14:34:51;9.77;;;7.47;;
3159;SDS011;1591;51.486;7.146;2022-09-13T14:37:25;11.77;;;6.70;;
3159;SDS011;1591;51.486;7.146;2022-09-13T14:39:57;7.77;;;6.90;;
3159;SDS011;1591;51.486;7.146;2022-09-13T14:42:35;15.43;;;6.60;;
3159;SDS011;1591;51.486;7.146;2022-09-13T14:45:04;8.70;;;7.00;;
3159;SDS011;1591;51.486;7.146;2022-09-13T14:47:40;8.60;;;6.83;;
3159;SDS011;1591;51.486;7.146;2022-09-13T14:50:16;10.90;;;7.57;;
3159;SDS011;1591;51.486;7.146;2022-09-13T14:52:51;15.87;;;6.60;;
3159;SDS011;1591;51.486;7.146;2022-09-13T14:55:22;7.50;;;5.53;;
3159;SDS011;1591;51.486;7.146;2022-09-13T14:57:54;7.50;;;5.53;;
3159;SDS011;1591;51.486;7.146;2022-09-13T15:00:27;11.20;;;5.90;;
3159;SDS011;1591;51.486;7.146;2022-09-13T15:02:57;11.87;;;6.20;;
3159;SDS011;1591;51.486;7.146;2022-09-13T15:05:28;7.77;;;6.63;;
3159;SDS011;1591;51.486;7.146;2022-09-13T15:07:59;10.20;;;5.83;;
3159;SDS011;1591;51.486;7.146;2022-09-13T15:10:46;13.20;;;5.63;;
3159;SDS011;1591;51.486;7.146;2022-09-13T15:13:15;6.93;;;6.23;;
3159;SDS011;1591;51.486;7.146;2022-09-13T15:15:42;8.83;;;5.30;;
3159;SDS011;1591;51.486;7.146;2022-09-13T15:18:23;8.10;;;6.20;;
3159;SDS011;1591;51.486;7.146;2022-09-13T15:20:56;13.40;;;6.33;;
3159;SDS011;1591;51.486;7.146;2022-09-13T15:23:26;10.63;;;6.13;;
3159;SDS011;1591;51.486;7.146;2022-09-13T15:25:58;6.30;;;5.13;;
3159;SDS011;1591;51.486;7.146;2022-09-13T15:28:32;8.97;;;6.70;;
3159;SDS011;1591;51.486;7.146;2022-09-13T15:31:11;6.20;;;5.37;;
3159;SDS011;1591;51.486;7.146;2022-09-13T15:34:08;10.63;;;6.57;;
3159;SDS011;1591;51.486;7.146;2022-09-13T15:36:37;14.13;;;6.80;;
3159;SDS011;1591;51.486;7.146;2022-09-13T15:39:14;7.13;;;6.40;;
3159;SDS011;1591;51.486;7.146;2022-09-13T15:41:50;6.57;;;5.30;;
3159;SDS011;1591;51.486;7.146;2022-09-13T15:44:20;6.87;;;6.17;;
3159;SDS011;1591;51.486;7.146;2022-09-13T15:46:50;8.93;;;6.30;;
3159;SDS011;1591;51.486;7.146;2022-09-13T15:49:20;7.17;;;5.73;;
3159;SDS011;1591;51.486;7.146;2022-09-13T15:51:51;10.83;;;6.63;;
3159;SDS011;1591;51.486;7.146;2022-09-13T15:54:21;9.37;;;5.87;;
3159;SDS011;1591;51.486;7.146;2022-09-13T15:56:50;9.37;;;6.07;;
3159;SDS011;1591;51.486;7.146;2022-09-13T15:59:19;10.13;;;6.00;;
3159;SDS011;1591;51.486;7.146;2022-09-13T16:01:47;7.00;;;6.00;;
3159;SDS011;1591;51.486;7.146;2022-09-13T16:04:16;6.23;;;5.50;;
3159;SDS011;1591;51.486;7.146;2022-09-13T16:06:45;10.37;;;6.80;;
3159;SDS011;1591;51.486;7.146;2022-09-13T16:09:15;11.27;;;6.10;;
3159;SDS011;1591;51.486;7.146;2022-09-13T16:11:44;8.37;;;5.97;;
3159;SDS011;1591;51.486;7.146;2022-09-13T16:14:11;9.27;;;6.30;;
3159;SDS011;1591;51.486;7.146;2022-09-13T16:16:38;9.10;;;7.37;;
3159;SDS011;1591;51.486;7.146;2022-09-13T16:19:08;9.67;;;6.17;;
3159;SDS011;1591;51.486;7.146;2022-09-13T16:21:40;8.13;;;5.70;;
3159;SDS011;1591;51.486;7.146;2022-09-13T16:24:08;10.57;;;6.17;;
3159;SDS011;1591;51.486;7.146;2022-09-13T16:26:35;8.87;;;6.60;;